Flight Track Log - Related Links

Times and Time Zones

All times are in EDT time to prevent confusion due to time zone crossing. See the AWI3778 flight status page for this flight to view local times or setup timezone preferences in your user account.

Time Position Orientation Groundspeed Altitude Reporting Facility
EDT Latitude Longitude Course Direction KTS MPH feet Rate Location/Type
Sat 12:49:07 PM 38.8833 -77.0500 169° South 183 211 1,300  Level Potomac TRACON
Sat 12:50:01 PM 38.9167 -77.1000 311° West 206 237 3,700 2,134 Climbing Potomac TRACON
Sat 12:51:36 PM 38.9906 -77.1806 320° Northwest 243 280 6,600 2,012 Climbing Washington Center
Sat 12:52:00 PM 38.4844 -76.7069 171° South  Level FlightAware Approximate
Sat 12:52:48 PM 39.0414 -77.1042 49° Northeast 188 216 9,300  Level Washington Center
Sat 12:53:00 PM 38.3700 -76.7000 180° South  Level FlightAware Approximate
Sat 12:53:49 PM 38.9925 -77.0178 126° Southeast 144 166 11,300  Level Washington Center
Sat 12:54:00 PM 38.2685 -76.6796 169° South  Level FlightAware Approximate
Sat 12:54:50 PM 38.9117 -76.9683 155° Southeast 238 274 12,000  Level Washington Center
Sat 12:55:50 PM 38.8250 -76.9081 152° Southeast 308 354 13,400 1,412 Climbing Washington Center
Sat 12:56:49 PM 38.7358 -76.8478 152° Southeast 331 381 14,800 1,361 Climbing Washington Center
Sat 12:57:49 PM 38.6447 -76.7878 153° Southeast 353 406 16,100 1,140 Climbing Washington Center
Sat 12:58:50 PM 38.5472 -76.7544 165° South 358 412 17,100 908 Climbing Washington Center
Sat 12:59:48 PM 38.4428 -76.7500 178° South 368 423 17,900 908 Climbing Washington Center
Sat 01:00:49 PM 38.3386 -76.7458 178° South 373 429 18,900 836 Climbing Washington Center
Sat 01:01:50 PM 38.2344 -76.7389 177° South 373 429 19,600 706 Climbing Washington Center
Sat 01:02:48 PM 38.1281 -76.7372 179° South 379 436 20,300 807 Climbing Washington Center
Sat 01:03:49 PM 38.0197 -76.7303 177° South 385 443 21,200 793 Climbing Washington Center
Sat 01:04:49 PM 37.9133 -76.7289 179° South 385 443 21,900 496 Climbing Washington Center
Sat 01:05:50 PM 37.8050 -76.7219 177° South 385 443 22,200 496 Climbing Washington Center
Sat 01:06:50 PM 37.6967 -76.7178 178° South 385 443 22,900 564 Climbing Washington Center
Sat 01:07:47 PM 37.5861 -76.7133 178° South 390 449 23,300 458 Climbing Washington Center
Sat 01:08:48 PM 37.4736 -76.7092 178° South 395 455 23,800 390 Climbing Washington Center
Sat 01:09:50 PM 37.3667 -76.7417 194° South 400 460 24,100 300 Climbing Washington Center
Sat 01:10:48 PM 37.2600 -76.7869 199° South 400 460 24,400 151 Climbing Washington Center
Sat 01:11:49 PM 37.1553 -76.8297 198° South 400 460 24,400 50 Level Washington Center
Sat 01:12:49 PM 37.0525 -76.8750 199° South 400 460 24,500 101 Climbing Washington Center
Sat 01:13:48 PM 36.9500 -76.9147 197° South 400 460 24,600 202 Climbing Washington Center
Sat 01:14:48 PM 36.8472 -76.9572 198° South 400 460 24,900 393 Climbing Washington Center
Sat 01:15:50 PM 36.7467 -76.9994 199° South 394 453 25,400 500 Climbing Washington Center
Sat 01:16:48 PM 36.6603 -77.0625 210° Southwest 375 432 25,900 610 Climbing Washington Center
Sat 01:17:48 PM 36.5781 -77.1414 218° Southwest 375 432 26,600 700 Climbing Washington Center
Sat 01:18:48 PM 36.4978 -77.2172 217° Southwest 375 432 27,300 893 Climbing Washington Center
Sat 01:19:49 PM 36.4194 -77.2903 217° Southwest 369 425 28,400 885 Climbing Washington Center
Sat 01:20:50 PM 36.3433 -77.3608 217° Southwest 359 413 29,100 655 Climbing Washington Center
Sat 01:21:48 PM 36.2672 -77.4339 218° Southwest 354 407 29,700 605 Climbing Washington Center
Sat 01:22:49 PM 36.1867 -77.5119 218° Southwest 343 395 30,300 590 Climbing Washington Center
Sat 01:23:50 PM 36.1083 -77.5819 216° Southwest 343 395 30,900 555 Climbing Washington Center
Sat 01:24:48 PM 36.0342 -77.6519 217° Southwest 348 400 31,400 508 Climbing Washington Center
Sat 01:25:48 PM 35.9556 -77.7192 215° Southwest 348 400 31,900 298 Climbing Washington Center
Sat 01:26:49 PM 35.8753 -77.7836 213° Southwest 348 400 32,000 49 Climbing Washington Center
Sat 01:27:50 PM 35.7906 -77.8506 213° Southwest 359 413 32,000  Level Washington Center
Sat 01:28:50 PM 35.7036 -77.9197 213° Southwest 365 420 32,000  Level Washington Center
Sat 01:29:50 PM 35.6169 -77.9836 211° Southwest 376 433 32,000  Level Washington Center
Sat 01:30:48 PM 35.5300 -78.0525 213° Southwest 376 433 32,000  Level Washington Center
Sat 01:31:48 PM 35.4408 -78.1211 212° Southwest 376 433 32,000  Level Washington Center
Sat 01:32:49 PM 35.3622 -78.1797 211° Southwest 376 433 32,000  Level Washington Center
Sat 01:33:49 PM 35.2731 -78.2506 213° Southwest 381 438 32,000  Level Washington Center
Sat 01:34:49 PM 35.1861 -78.3214 214° Southwest 381 438 32,000  Level Washington Center
Sat 01:35:50 PM 35.0947 -78.3894 211° Southwest 381 438 32,000  Level Washington Center
Sat 01:36:49 PM 35.0056 -78.4597 213° Southwest 381 438 32,000  Level Washington Center
Sat 01:37:49 PM 34.9181 -78.5303 213° Southwest 381 438 32,000  Level Washington Center
Sat 01:38:48 PM 34.8269 -78.5953 210° Southwest 381 438 32,000  Level Washington Center
Sat 01:41:18 PM 34.5872 -78.7794 212° Southwest 387 445 32,000  Level Jacksonville Center
Sat 01:42:18 PM 34.4975 -78.8467 212° Southwest 387 445 32,000  Level Jacksonville Center
Sat 01:43:18 PM 34.4081 -78.9214 215° Southwest 392 451 32,000  Level Jacksonville Center
Sat 01:44:18 PM 34.3164 -78.9908 212° Southwest 392 451 32,000  Level Jacksonville Center
Sat 01:45:18 PM 34.2247 -79.0603 212° Southwest 387 445 32,000 -200 Level Jacksonville Center
Sat 01:46:18 PM 34.1289 -79.1322 212° Southwest 397 457 31,600 -450 Descending Jacksonville Center
Sat 01:47:18 PM 34.0392 -79.2086 215° Southwest 402 463 31,100 -500 Descending Jacksonville Center
Sat 01:48:18 PM 33.9564 -79.2997 222° Southwest 407 468 30,600 -500 Descending Jacksonville Center
Sat 01:49:18 PM 33.8714 -79.3908 222° Southwest 407 468 30,100 -300 Descending Jacksonville Center
Sat 01:50:18 PM 33.7922 -79.4789 223° Southwest 407 468 30,000 -50 Descending Jacksonville Center
Sat 01:51:18 PM 33.7114 -79.5694 223° Southwest 401 461 30,000  Level Jacksonville Center
Sat 01:52:18 PM 33.6261 -79.6650 223° Southwest 407 468 30,000  Level Jacksonville Center
Sat 01:53:18 PM 33.5450 -79.7578 224° Southwest 412 474 30,000  Level Jacksonville Center
Sat 01:54:18 PM 33.4617 -79.8528 224° Southwest 412 474 30,000  Level Jacksonville Center
Sat 01:55:18 PM 33.3825 -79.9475 225° Southwest 412 474 30,000  Level Jacksonville Center
Sat 01:56:18 PM 33.3014 -80.0419 224° Southwest 412 474 30,000  Level Jacksonville Center
Sat 01:57:18 PM 33.2219 -80.1364 225° Southwest 412 474 30,000  Level Jacksonville Center
Sat 01:58:18 PM 33.1356 -80.1986 211° Southwest 418 481 30,000  Level Jacksonville Center
Sat 01:59:18 PM 33.0347 -80.2611 207° Southwest 413 475 30,000  Level Jacksonville Center
Sat 02:00:18 PM 32.9275 -80.3236 206° Southwest 408 470 30,000  Level Jacksonville Center
Sat 02:01:18 PM 32.8286 -80.3858 208° Southwest 414 476 30,000  Level Jacksonville Center
Sat 02:02:18 PM 32.7294 -80.4453 207° Southwest 407 468 30,000  Level Jacksonville Center
Sat 02:03:18 PM 32.6306 -80.5072 208° Southwest 402 463 30,000  Level Jacksonville Center
Sat 02:04:18 PM 32.5292 -80.5667 206° Southwest 402 463 30,000  Level Jacksonville Center
Sat 02:05:18 PM 32.4303 -80.6283 208° Southwest 402 463 30,000 -150 Level Jacksonville Center
Sat 02:06:18 PM 32.3289 -80.6872 206° Southwest 402 463 29,700 -850 Descending Jacksonville Center
Sat 02:07:18 PM 32.2208 -80.7192 194° South 402 463 28,300 -1,450 Descending Jacksonville Center
Sat 02:08:18 PM 32.1067 -80.7514 193° South 395 455 26,800 -1,450 Descending Jacksonville Center
Sat 02:09:18 PM 32.0089 -80.7783 193° South 395 455 25,400 -1,450 Descending Jacksonville Center
Sat 02:10:18 PM 31.8906 -80.8128 194° South 395 455 23,900 -1,400 Descending Jacksonville Center
Sat 02:11:18 PM 31.7908 -80.8492 197° South 385 443 22,600 -1,300 Descending Jacksonville Center
Sat 02:12:18 PM 31.7100 -80.8803 198° South 358 412 21,300 -1,450 Descending Jacksonville Center
Sat 02:13:18 PM 31.6042 -80.9192 197° South 358 412 19,700 -1,450 Descending Jacksonville Center
Sat 02:14:18 PM 31.5297 -80.9669 209° Southwest 358 412 18,400 -1,400 Descending Jacksonville Center
Sat 02:15:18 PM 31.4536 -81.0369 218° Southwest 329 379 16,900 -1,400 Descending Jacksonville Center
Sat 02:16:18 PM 31.3833 -81.0992 217° Southwest 324 373 15,600 -1,300 Descending Jacksonville Center
Sat 02:17:18 PM 31.3239 -81.1658 224° Southwest 324 373 14,300 -1,400 Descending Jacksonville Center
Sat 02:18:18 PM 31.2600 -81.2278 220° Southwest 324 373 12,800 -1,645 Descending Jacksonville Center
Sat 02:19:22 PM 31.1769 -81.2803 208° Southwest 297 342 10,900 -1,450 Descending Jacksonville Center
Sat 02:20:18 PM 31.1150 -81.3178 207° Southwest 300 345 9,900 -517 Descending Jacksonville Center
Sat 02:21:18 PM 31.0425 -81.3625 208° Southwest 290 334 9,900 48 Level Jacksonville Center
Sat 02:22:24 PM 30.9533 -81.4150 207° Southwest 304 350 10,000 -500 Climbing Jacksonville Center
Sat 02:23:18 PM 30.8972 -81.4472 206° Southwest 295 339 8,900 -1,632 Descending Jacksonville Center
Sat 02:24:18 PM 30.8331 -81.4869 208° Southwest 278 320 6,900 -2,000 Descending Jacksonville Center
Sat 02:25:18 PM 30.7728 -81.5242 208° Southwest 266 306 4,900 -1,500 Descending Jacksonville Center
Sat 02:26:18 PM 30.7128 -81.5708 214° Southwest 261 300 3,900 -500 Descending Jacksonville Center
Sat 02:27:18 PM 30.6611 -81.6294 224° Southwest 261 300 3,900 -687 Level Jacksonville Center
Sat 02:28:29 PM 30.5950 -81.7078 226° Southwest 258 297 2,400 -1,045 Descending Jacksonville Center
Sat 02:29:30 PM 30.5536 -81.7517 222° Southwest 178 205 1,600 -787 Descending Jacksonville Center
Sat 02:30:31 PM 30.5100 -81.7569 186° South 136 157 800 -595 Descending Jacksonville Center
Sat 02:31:31 PM 30.4886 -81.7161 121° Southeast 141 162 400 -400 Descending Jacksonville Center

Login

Don't have an account? Register now (free) for customized features, flight alerts, and more!